Terminal Aerodrome Forecast
Issued by NWS Lake Charles, LA

Home | Current Version | Previous Version | Text Only | Print | Product List | Glossary On
Versions: 1 2 3 4 5 6 7 8 9 10 11 12 13 14
463
FTUS44 KLCH 110522
TAFAEX
TAF
KAEX 110522Z 1106/1206 12005KT P6SM OVC050
     FM111500 14010KT P6SM OVC050
     FM111900 17012G20KT P6SM OVC040
     FM120000 16012KT P6SM OVC025=

USA.gov is the U.S. government's official web portal to all federal, state and local government web resources and services.